Terminal Aerodrome Forecast
Issued by NWS Knoxville/Tri Cities, TN

Home | Current Version | Previous Version | Text Only | Print | Product List | Glossary On
Versions: 1 2 3 4 5 6 7 8 9 10 11 12 13 14 15 16 17 18 19 20 21 22 23 24
000
FTUS44 KMRX 300526
TAFTRI
TAF
KTRI 300526Z 3006/0106 00000KT 4SM BR SCT060
     FM300800 00000KT 1SM BR BKN006
      TEMPO 3008/3012 1/4SM FG OVC002
     FM301230 00000KT 2SM BR BKN004
     FM301330 VRB02KT 5SM BR SCT006
     FM301400 26003KT P6SM SCT250
     FM010100 00000KT P6SM SKC=

USA.gov is the U.S. government's official web portal to all federal, state and local government web resources and services.